Time;durP1;ratioP1;P1;durP2;ratioP2;P2;SDS_P1;SDS_P2;PMS_P1;PMS_P2;Temp;Humidity;BMP_temperature;BMP_pressure;BME280_temperature;BME280_humidity;BME280_pressure;Samples;Min_cycle;Max_cycle;Signal;HPM_P1;HPM_P2
2022/01/20 00:03:11;;;;;;;2.00;1.83;;;;;;;;;;8345110;28;20032;-65
2022/01/20 00:07:26;;;;;;;1.90;1.65;;;;;;;;;;8349692;28;20105;-64
2022/01/20 00:28:48;;;;;;;2.45;2.10;;;;;;;;;;8348369;28;20095;-64
2022/01/20 00:41:15;;;;;;;2.40;2.20;;;;;;;;;;8346470;28;20468;-64
2022/01/20 00:45:15;;;;;;;2.22;2.03;;;;;;;;;;8348300;28;20490;-64
2022/01/20 00:49:15;;;;;;;2.77;2.57;;;;;;;;;;8347860;28;20062;-65
2022/01/20 00:53:15;;;;;;;3.05;2.72;;;;;;;;;;8349192;28;20773;-65
2022/01/20 00:57:16;;;;;;;3.13;2.58;;;;;;;;;;8347870;28;20051;-64
2022/01/20 01:01:16;;;;;;;4.43;2.70;;;;;;;;;;8347794;28;20310;-65
2022/01/20 01:05:16;;;;;;;4.07;2.97;;;;;;;;;;8347450;28;20044;-64
2022/01/20 01:09:17;;;;;;;3.45;3.00;;;;;;;;;;8346152;28;20546;-64
2022/01/20 01:13:18;;;;;;;2.72;2.47;;;;;;;;;;8346950;28;20024;-64
2022/01/20 01:21:31;;;;;;;2.97;2.65;;;;;;;;;;8346712;28;20020;-64
2022/01/20 01:25:31;;;;;;;3.53;3.05;;;;;;;;;;8348843;28;20108;-65
2022/01/20 01:34:00;;;;;;;3.97;3.03;;;;;;;;;;8357258;28;20275;-65
2022/01/20 01:42:08;;;;;;;3.85;3.35;;;;;;;;;;8355549;28;20095;-64
2022/01/20 01:46:09;;;;;;;4.30;3.50;;;;;;;;;;8356960;28;20040;-65
2022/01/20 01:50:09;;;;;;;3.63;2.97;;;;;;;;;;8356096;28;20044;-64
2022/01/20 01:54:11;;;;;;;4.63;3.15;;;;;;;;;;8357297;28;20066;-64
2022/01/20 01:58:11;;;;;;;4.13;3.22;;;;;;;;;;8356223;28;20408;-65
2022/01/20 02:02:12;;;;;;;3.55;3.10;;;;;;;;;;8357238;28;20596;-65
2022/01/20 02:06:41;;;;;;;4.03;3.53;;;;;;;;;;8353949;28;20021;-64
2022/01/20 02:19:27;;;;;;;;;;;;;;;;;;8356862;28;20051;-64
2022/01/20 02:23:28;;;;;;;4.22;3.20;;;;;;;;;;8355508;28;19924;-64
2022/01/20 02:27:28;;;;;;;4.88;3.85;;;;;;;;;;8357031;28;20147;-64
2022/01/20 02:31:28;;;;;;;4.35;3.42;;;;;;;;;;8355231;28;20040;-64
2022/01/20 02:35:31;;;;;;;7.95;4.22;;;;;;;;;;8355693;28;20060;-65
2022/01/20 02:47:56;;;;;;;8.93;4.35;;;;;;;;;;8351214;28;20039;-64
2022/01/20 02:51:57;;;;;;;6.40;3.70;;;;;;;;;;8350947;28;20020;-64
2022/01/20 02:55:57;;;;;;;6.90;3.33;;;;;;;;;;8351213;28;20027;-65
2022/01/20 02:59:57;;;;;;;6.88;3.38;;;;;;;;;;8349192;28;20053;-64
2022/01/20 03:04:00;;;;;;;7.43;4.10;;;;;;;;;;8349718;28;20747;-64
2022/01/20 03:08:00;;;;;;;10.02;3.13;;;;;;;;;;8351711;28;20312;-65
2022/01/20 03:12:01;;;;;;;10.70;3.55;;;;;;;;;;8350811;28;20985;-65
2022/01/20 03:16:01;;;;;;;9.85;3.85;;;;;;;;;;8350448;28;20083;-65
2022/01/20 03:20:01;;;;;;;6.10;3.50;;;;;;;;;;8346435;28;20055;-64
2022/01/20 03:24:01;;;;;;;8.90;3.53;;;;;;;;;;8351356;28;20032;-64
2022/01/20 03:28:02;;;;;;;7.57;3.03;;;;;;;;;;8350451;28;20750;-64
2022/01/20 03:32:02;;;;;;;8.05;3.50;;;;;;;;;;8349647;28;20283;-64
2022/01/20 03:36:03;;;;;;;8.68;3.55;;;;;;;;;;8349859;28;20052;-65
2022/01/20 03:40:04;;;;;;;8.52;3.08;;;;;;;;;;8350409;28;20621;-64
2022/01/20 03:44:04;;;;;;;11.07;3.03;;;;;;;;;;8349128;28;20098;-65
2022/01/20 03:48:11;;;;;;;9.57;3.03;;;;;;;;;;8350335;28;20033;-64
2022/01/20 03:52:11;;;;;;;11.13;3.40;;;;;;;;;;8349806;28;20116;-65
2022/01/20 03:56:11;;;;;;;9.82;2.80;;;;;;;;;;8348767;28;20246;-65
2022/01/20 04:00:11;;;;;;;9.10;2.72;;;;;;;;;;8346522;28;20060;-65
2022/01/20 04:04:12;;;;;;;9.95;2.70;;;;;;;;;;8347186;28;20120;-65
2022/01/20 04:08:12;;;;;;;10.25;2.50;;;;;;;;;;8347767;28;20020;-64
2022/01/20 04:12:12;;;;;;;12.95;2.88;;;;;;;;;;8349559;28;20028;-65
2022/01/20 04:16:16;;;;;;;12.45;2.85;;;;;;;;;;8345039;28;20033;-64
2022/01/20 04:20:16;;;;;;;15.27;2.47;;;;;;;;;;8348821;28;20116;-64
2022/01/20 04:24:17;;;;;;;11.17;3.13;;;;;;;;;;8346495;28;20128;-64
2022/01/20 04:28:17;;;;;;;11.18;2.50;;;;;;;;;;8346996;28;20282;-64
2022/01/20 04:32:17;;;;;;;8.95;2.60;;;;;;;;;;8346281;28;20494;-64
2022/01/20 04:36:18;;;;;;;10.80;2.90;;;;;;;;;;8348230;28;20037;-65
2022/01/20 04:40:18;;;;;;;16.58;3.50;;;;;;;;;;8345646;28;20571;-65
2022/01/20 04:44:33;;;;;;;18.75;2.85;;;;;;;;;;8349066;28;20038;-65
2022/01/20 04:57:21;;;;;;;14.73;2.85;;;;;;;;;;8348089;28;20229;-64
2022/01/20 05:01:21;;;;;;;13.50;3.35;;;;;;;;;;8345967;28;20051;-65
2022/01/20 05:05:22;;;;;;;16.93;2.83;;;;;;;;;;8348641;28;20060;-64
2022/01/20 05:09:22;;;;;;;20.70;3.10;;;;;;;;;;8347447;28;20251;-64
2022/01/20 05:13:25;;;;;;;14.85;2.50;;;;;;;;;;8345650;28;20044;-64
2022/01/20 05:17:25;;;;;;;12.50;2.75;;;;;;;;;;8345390;28;20159;-65
2022/01/20 05:21:25;;;;;;;14.95;2.22;;;;;;;;;;8344045;28;20041;-66
2022/01/20 05:25:26;;;;;;;10.23;2.17;;;;;;;;;;8345856;28;20033;-64
2022/01/20 05:29:26;;;;;;;15.75;2.65;;;;;;;;;;8345895;28;20029;-64
2022/01/20 05:33:27;;;;;;;18.48;2.70;;;;;;;;;;8344365;28;20037;-64
2022/01/20 05:37:27;;;;;;;10.27;2.22;;;;;;;;;;8347503;28;20040;-64
2022/01/20 05:41:27;;;;;;;12.25;2.28;;;;;;;;;;8344367;28;20117;-64
2022/01/20 05:45:27;;;;;;;16.23;2.58;;;;;;;;;;8345723;28;20048;-65
2022/01/20 05:49:28;;;;;;;17.80;2.65;;;;;;;;;;8339954;28;20029;-64
2022/01/20 05:53:28;;;;;;;14.60;3.13;;;;;;;;;;8345358;28;20478;-64
2022/01/20 05:57:28;;;;;;;17.35;2.90;;;;;;;;;;8345637;28;20706;-65
2022/01/20 06:01:31;;;;;;;14.07;2.53;;;;;;;;;;8344642;28;20163;-65
2022/01/20 06:05:32;;;;;;;15.20;2.78;;;;;;;;;;8345744;28;20028;-64
2022/01/20 06:09:32;;;;;;;17.77;2.97;;;;;;;;;;8346514;28;20560;-64
2022/01/20 06:13:32;;;;;;;10.32;2.63;;;;;;;;;;8347473;28;20086;-64
2022/01/20 06:17:36;;;;;;;17.42;2.53;;;;;;;;;;8349243;28;20066;-64
2022/01/20 06:21:37;;;;;;;19.73;4.40;;;;;;;;;;8351581;28;20406;-64
2022/01/20 06:25:38;;;;;;;15.63;2.83;;;;;;;;;;8349915;28;20029;-64
2022/01/20 06:29:38;;;;;;;11.02;2.33;;;;;;;;;;8345245;28;20027;-64
2022/01/20 06:33:38;;;;;;;20.45;2.85;;;;;;;;;;8339887;28;20267;-64
2022/01/20 06:37:38;;;;;;;13.85;2.63;;;;;;;;;;8345558;28;20044;-64
2022/01/20 06:41:38;;;;;;;19.10;3.35;;;;;;;;;;8346009;28;20257;-64
2022/01/20 06:45:39;;;;;;;13.73;2.97;;;;;;;;;;8343307;28;20040;-64
2022/01/20 06:49:39;;;;;;;11.35;2.70;;;;;;;;;;8341283;28;20730;-64
2022/01/20 06:53:39;;;;;;;16.90;3.08;;;;;;;;;;8343521;28;20505;-64
2022/01/20 06:57:39;;;;;;;10.05;1.98;;;;;;;;;;8345593;28;20563;-64
2022/01/20 07:01:41;;;;;;;16.42;2.45;;;;;;;;;;8343420;28;20033;-64
2022/01/20 07:05:41;;;;;;;16.70;2.97;;;;;;;;;;8343497;28;20040;-65
2022/01/20 07:09:41;;;;;;;16.27;2.75;;;;;;;;;;8345248;28;20129;-64
2022/01/20 07:13:41;;;;;;;9.45;2.63;;;;;;;;;;8341915;28;20136;-64
2022/01/20 07:17:42;;;;;;;12.68;2.03;;;;;;;;;;8344065;28;20041;-64
2022/01/20 07:21:42;;;;;;;15.93;2.53;;;;;;;;;;8345506;28;20032;-64
2022/01/20 07:25:43;;;;;;;9.18;2.30;;;;;;;;;;8341426;28;20144;-64
2022/01/20 07:29:43;;;;;;;16.27;2.42;;;;;;;;;;8343740;28;20024;-64
2022/01/20 07:33:44;;;;;;;15.30;2.70;;;;;;;;;;8342328;28;20183;-64
2022/01/20 07:37:44;;;;;;;15.35;2.78;;;;;;;;;;8344615;28;20059;-64
2022/01/20 07:41:45;;;;;;;6.40;1.65;;;;;;;;;;8341798;28;20059;-64
2022/01/20 07:45:45;;;;;;;8.82;2.33;;;;;;;;;;8340931;28;20403;-64
2022/01/20 07:49:45;;;;;;;17.73;3.03;;;;;;;;;;8343267;28;20517;-64
2022/01/20 07:53:45;;;;;;;9.77;1.90;;;;;;;;;;8342301;28;20531;-65
2022/01/20 07:57:45;;;;;;;9.30;1.88;;;;;;;;;;8341143;28;20031;-65
2022/01/20 08:01:46;;;;;;;16.55;3.45;;;;;;;;;;8342359;28;20157;-64
2022/01/20 08:05:46;;;;;;;9.38;2.03;;;;;;;;;;8341720;28;20021;-64
2022/01/20 08:09:50;;;;;;;9.25;2.22;;;;;;;;;;8341997;28;20407;-64
2022/01/20 08:13:50;;;;;;;9.85;2.47;;;;;;;;;;8341692;28;20032;-64
2022/01/20 08:17:50;;;;;;;10.57;2.30;;;;;;;;;;8340982;28;20453;-64
2022/01/20 08:21:50;;;;;;;8.00;2.53;;;;;;;;;;8342178;28;20344;-64
2022/01/20 08:25:51;;;;;;;11.27;2.00;;;;;;;;;;8343185;28;20029;-64
2022/01/20 08:29:51;;;;;;;7.53;1.90;;;;;;;;;;8340752;28;20020;-64
2022/01/20 08:33:51;;;;;;;9.40;2.60;;;;;;;;;;8339432;28;20033;-64
2022/01/20 08:37:51;;;;;;;7.25;1.70;;;;;;;;;;8339180;28;20025;-64
2022/01/20 08:41:51;;;;;;;11.30;2.35;;;;;;;;;;8341403;28;20013;-64
2022/01/20 08:45:52;;;;;;;5.97;1.50;;;;;;;;;;8339643;28;21228;-65
2022/01/20 08:49:52;;;;;;;8.70;1.92;;;;;;;;;;8341587;28;20301;-65
2022/01/20 08:53:52;;;;;;;5.03;1.48;;;;;;;;;;8341009;28;20079;-65
2022/01/20 08:57:54;;;;;;;10.27;2.05;;;;;;;;;;8341079;28;20029;-65
2022/01/20 09:01:54;;;;;;;6.85;1.58;;;;;;;;;;8339090;28;20044;-65
2022/01/20 09:05:55;;;;;;;6.80;1.85;;;;;;;;;;8339697;28;20090;-65
2022/01/20 09:09:56;;;;;;;4.45;1.45;;;;;;;;;;8341720;28;20063;-65
2022/01/20 09:18:18;;;;;;;5.88;1.73;;;;;;;;;;8339764;28;20250;-65
2022/01/20 09:22:19;;;;;;;9.18;2.30;;;;;;;;;;8337895;28;20629;-66
2022/01/20 09:26:19;;;;;;;12.05;1.85;;;;;;;;;;8340482;28;20107;-64
2022/01/20 09:30:21;;;;;;;6.70;1.75;;;;;;;;;;8339271;28;20020;-64
2022/01/20 09:34:21;;;;;;;4.35;1.20;;;;;;;;;;8338844;28;20253;-65
2022/01/20 09:38:22;;;;;;;5.50;1.27;;;;;;;;;;8341196;28;20492;-64
2022/01/20 09:42:23;;;;;;;4.45;1.15;;;;;;;;;;8339174;28;20427;-64
2022/01/20 09:46:24;;;;;;;4.97;1.27;;;;;;;;;;8339567;28;20128;-64
2022/01/20 09:50:25;;;;;;;7.43;1.75;;;;;;;;;;8346270;28;20040;-64
2022/01/20 09:54:25;;;;;;;5.20;1.42;;;;;;;;;;8346422;28;20601;-64
2022/01/20 09:58:25;;;;;;;7.32;1.80;;;;;;;;;;8361159;28;20485;-64
2022/01/20 10:02:25;;;;;;;4.10;1.20;;;;;;;;;;8349378;28;20489;-64
2022/01/20 10:06:25;;;;;;;4.18;1.40;;;;;;;;;;8344284;28;20168;-64
2022/01/20 10:10:35;;;;;;;5.20;1.98;;;;;;;;;;8346475;28;20505;-64
2022/01/20 10:14:57;;;;;;;7.53;1.63;;;;;;;;;;8345850;28;20362;-64
2022/01/20 10:18:59;;;;;;;5.68;1.50;;;;;;;;;;8343381;28;20672;-64
2022/01/20 10:23:00;;;;;;;8.20;1.70;;;;;;;;;;8344597;28;20048;-64
2022/01/20 10:27:07;;;;;;;5.30;1.52;;;;;;;;;;8342070;28;20102;-64
2022/01/20 10:31:07;;;;;;;5.72;1.70;;;;;;;;;;8344151;28;20032;-64
2022/01/20 10:35:08;;;;;;;8.32;2.13;;;;;;;;;;8344276;28;20035;-65
2022/01/20 10:39:09;;;;;;;4.00;1.50;;;;;;;;;;8344757;28;20033;-65
2022/01/20 10:43:18;;;;;;;4.93;1.80;;;;;;;;;;8343788;28;20025;-65
2022/01/20 10:47:19;;;;;;;13.52;2.53;;;;;;;;;;8344240;28;20116;-65
2022/01/20 10:51:20;;;;;;;8.73;2.38;;;;;;;;;;8344224;28;20025;-65
2022/01/20 10:55:21;;;;;;;9.13;2.10;;;;;;;;;;8343248;28;20579;-65
2022/01/20 10:59:22;;;;;;;10.27;2.17;;;;;;;;;;8344165;28;20017;-65
2022/01/20 11:03:24;;;;;;;4.88;1.75;;;;;;;;;;8341536;28;20219;-65
2022/01/20 11:07:25;;;;;;;10.05;1.80;;;;;;;;;;8346215;28;20025;-65
2022/01/20 11:11:25;;;;;;;6.63;1.75;;;;;;;;;;8341784;28;20033;-65
2022/01/20 11:15:28;;;;;;;11.20;2.15;;;;;;;;;;8342641;28;20036;-65
2022/01/20 11:19:35;;;;;;;9.80;2.00;;;;;;;;;;8335747;28;20032;-64
2022/01/20 11:23:40;;;;;;;6.68;1.80;;;;;;;;;;8341195;28;20123;-65
2022/01/20 11:27:42;;;;;;;12.90;2.38;;;;;;;;;;8342317;28;20055;-65
2022/01/20 11:31:42;;;;;;;10.75;2.30;;;;;;;;;;8342265;28;20036;-65
2022/01/20 11:35:51;;;;;;;9.68;2.15;;;;;;;;;;8342027;28;20307;-65
2022/01/20 11:39:52;;;;;;;8.48;2.70;;;;;;;;;;8341169;28;20024;-65
2022/01/20 11:43:53;;;;;;;9.63;2.53;;;;;;;;;;8342682;28;20366;-65
2022/01/20 11:47:53;;;;;;;5.50;1.70;;;;;;;;;;8342608;28;21466;-65
2022/01/20 11:51:59;;;;;;;5.80;1.55;;;;;;;;;;8342493;28;20035;-65
2022/01/20 11:55:59;;;;;;;5.88;1.70;;;;;;;;;;8338597;28;20657;-65
2022/01/20 12:00:01;;;;;;;7.85;1.75;;;;;;;;;;8339022;28;20374;-65
2022/01/20 12:04:01;;;;;;;8.02;2.00;;;;;;;;;;8337603;28;20743;-65
2022/01/20 12:08:17;;;;;;;10.27;3.03;;;;;;;;;;8338834;28;20405;-65
2022/01/20 12:12:23;;;;;;;6.88;1.85;;;;;;;;;;8337795;28;20751;-65
2022/01/20 12:16:24;;;;;;;5.47;1.42;;;;;;;;;;8337253;28;20036;-65
2022/01/20 12:20:25;;;;;;;6.32;1.60;;;;;;;;;;8335587;28;20131;-64
2022/01/20 12:24:25;;;;;;;7.57;1.77;;;;;;;;;;8337697;28;20038;-65
2022/01/20 12:28:25;;;;;;;9.45;1.42;;;;;;;;;;8338343;28;20424;-65
2022/01/20 12:32:26;;;;;;;4.05;1.30;;;;;;;;;;8337952;28;20047;-64
2022/01/20 12:36:27;;;;;;;3.13;1.13;;;;;;;;;;8339147;28;20044;-65
2022/01/20 12:40:27;;;;;;;5.65;1.00;;;;;;;;;;8335446;28;20025;-65
2022/01/20 12:44:46;;;;;;;4.55;1.40;;;;;;;;;;8338166;28;20036;-65
2022/01/20 12:49:04;;;;;;;3.50;1.58;;;;;;;;;;8336673;28;20045;-64
2022/01/20 12:53:04;;;;;;;4.88;1.25;;;;;;;;;;8338897;28;20108;-65
2022/01/20 12:57:05;;;;;;;3.38;0.85;;;;;;;;;;8338569;28;20374;-65
2022/01/20 13:01:06;;;;;;;3.88;1.15;;;;;;;;;;8336663;28;20033;-65
2022/01/20 13:05:06;;;;;;;8.88;1.73;;;;;;;;;;8335379;28;20477;-65
2022/01/20 13:09:08;;;;;;;8.00;1.75;;;;;;;;;;8336578;28;20529;-65
2022/01/20 13:13:15;;;;;;;3.90;1.40;;;;;;;;;;8336049;28;20202;-65
2022/01/20 13:17:22;;;;;;;7.30;1.70;;;;;;;;;;8335416;28;20068;-64
2022/01/20 13:21:37;;;;;;;7.43;1.92;;;;;;;;;;8338157;28;20428;-64
2022/01/20 13:25:40;;;;;;;9.13;1.60;;;;;;;;;;8334021;28;20752;-65
2022/01/20 13:29:42;;;;;;;9.48;1.80;;;;;;;;;;8335252;28;20501;-65
2022/01/20 13:33:43;;;;;;;4.68;1.60;;;;;;;;;;8333383;28;20324;-65
2022/01/20 13:37:47;;;;;;;7.07;1.35;;;;;;;;;;8336201;28;20538;-64
2022/01/20 13:41:49;;;;;;;10.82;1.63;;;;;;;;;;8338488;28;20028;-65
2022/01/20 13:45:49;;;;;;;5.70;1.40;;;;;;;;;;8335110;28;20071;-65
2022/01/20 13:49:50;;;;;;;3.53;1.27;;;;;;;;;;8336722;28;20024;-64
2022/01/20 13:53:54;;;;;;;7.05;1.67;;;;;;;;;;8337145;28;20082;-64
2022/01/20 13:57:55;;;;;;;9.50;1.60;;;;;;;;;;8332746;28;20032;-65
2022/01/20 14:01:56;;;;;;;2.95;1.17;;;;;;;;;;8332108;28;20488;-65
2022/01/20 14:05:56;;;;;;;8.13;1.40;;;;;;;;;;8333227;28;20032;-64
2022/01/20 14:09:57;;;;;;;9.53;1.70;;;;;;;;;;8335525;28;20755;-65
2022/01/20 14:13:57;;;;;;;6.53;1.52;;;;;;;;;;8336452;28;20794;-64
2022/01/20 14:17:59;;;;;;;3.92;1.33;;;;;;;;;;8335722;28;20063;-65
2022/01/20 14:21:59;;;;;;;6.80;1.30;;;;;;;;;;8334598;28;20447;-64
2022/01/20 14:26:01;;;;;;;8.43;1.85;;;;;;;;;;8334245;28;20025;-65
2022/01/20 14:30:01;;;;;;;5.53;1.27;;;;;;;;;;8333819;28;20047;-64
2022/01/20 14:34:01;;;;;;;5.90;1.60;;;;;;;;;;8336667;28;20159;-64
2022/01/20 14:38:02;;;;;;;3.88;1.38;;;;;;;;;;8342652;28;20260;-64
2022/01/20 14:42:06;;;;;;;7.38;1.52;;;;;;;;;;8341855;28;20110;-64
2022/01/20 14:46:08;;;;;;;4.85;1.90;;;;;;;;;;8342286;28;20045;-65
2022/01/20 14:50:09;;;;;;;9.15;2.05;;;;;;;;;;8341670;28;20087;-65
2022/01/20 14:54:09;;;;;;;8.60;2.35;;;;;;;;;;8340627;28;20292;-64
2022/01/20 14:58:09;;;;;;;6.38;1.48;;;;;;;;;;8341363;28;20071;-64
2022/01/20 15:02:10;;;;;;;8.30;1.90;;;;;;;;;;8340071;28;20457;-64
2022/01/20 15:06:10;;;;;;;5.47;1.38;;;;;;;;;;8340771;28;20024;-64
2022/01/20 15:10:12;;;;;;;6.38;1.20;;;;;;;;;;8340486;28;20222;-64
2022/01/20 15:14:12;;;;;;;8.43;1.20;;;;;;;;;;8340512;28;20485;-64
2022/01/20 15:18:12;;;;;;;5.00;1.30;;;;;;;;;;8339282;28;20040;-64
2022/01/20 15:22:12;;;;;;;7.15;2.17;;;;;;;;;;8345157;28;20020;-64
2022/01/20 15:26:13;;;;;;;5.95;1.50;;;;;;;;;;8343039;28;20859;-64
2022/01/20 15:30:13;;;;;;;7.20;1.53;;;;;;;;;;8340625;28;20297;-64
2022/01/20 15:34:14;;;;;;;7.05;1.60;;;;;;;;;;8340756;28;20275;-64
2022/01/20 15:38:14;;;;;;;7.78;1.73;;;;;;;;;;8340086;28;20048;-64
2022/01/20 15:42:14;;;;;;;6.80;1.65;;;;;;;;;;8341193;28;20035;-64
2022/01/20 15:46:15;;;;;;;7.55;2.13;;;;;;;;;;8339408;28;20075;-64
2022/01/20 15:50:15;;;;;;;5.82;1.40;;;;;;;;;;8342423;28;20032;-64
2022/01/20 15:54:15;;;;;;;6.00;1.48;;;;;;;;;;8342491;28;20504;-64
2022/01/20 15:58:16;;;;;;;5.70;1.60;;;;;;;;;;8339923;28;20096;-64
2022/01/20 16:02:16;;;;;;;6.40;1.60;;;;;;;;;;8342352;28;20398;-64
2022/01/20 16:06:16;;;;;;;7.68;1.25;;;;;;;;;;8339942;28;20035;-64
2022/01/20 16:10:17;;;;;;;7.53;1.48;;;;;;;;;;8341175;28;20300;-63
2022/01/20 16:14:17;;;;;;;7.13;1.38;;;;;;;;;;8342185;28;20585;-64
2022/01/20 16:18:19;;;;;;;8.38;1.60;;;;;;;;;;8340402;28;20339;-63
2022/01/20 16:22:20;;;;;;;7.43;1.40;;;;;;;;;;8341356;28;20478;-64
2022/01/20 16:26:20;;;;;;;8.90;2.08;;;;;;;;;;8341996;28;20440;-64
2022/01/20 16:30:20;;;;;;;6.93;1.90;;;;;;;;;;8341015;28;20489;-64
2022/01/20 16:34:20;;;;;;;21.67;2.45;;;;;;;;;;8340966;28;20475;-64
2022/01/20 16:38:21;;;;;;;7.15;1.63;;;;;;;;;;8343096;28;20090;-64
2022/01/20 16:42:21;;;;;;;9.13;1.80;;;;;;;;;;8340057;28;20367;-64
2022/01/20 16:46:21;;;;;;;5.83;1.13;;;;;;;;;;8341050;28;20041;-64
2022/01/20 16:50:21;;;;;;;7.60;2.00;;;;;;;;;;8342553;28;20699;-64
2022/01/20 16:54:21;;;;;;;7.13;1.90;;;;;;;;;;8340913;28;20013;-64
2022/01/20 16:58:22;;;;;;;7.20;1.60;;;;;;;;;;8339637;28;20666;-64
2022/01/20 17:02:51;;;;;;;8.17;1.50;;;;;;;;;;8341377;28;20044;-64
2022/01/20 17:06:45;;;;;;;9.90;1.80;;;;;;;;;;8338512;28;20394;-64
2022/01/20 17:10:46;;;;;;;7.47;2.10;;;;;;;;;;8341877;28;20032;-64
2022/01/20 17:14:46;;;;;;;4.50;1.55;;;;;;;;;;8338273;28;20075;-64
2022/01/20 17:18:46;;;;;;;5.75;1.45;;;;;;;;;;8337994;28;20028;-64
2022/01/20 17:22:46;;;;;;;6.40;2.05;;;;;;;;;;8335202;28;20021;-63
2022/01/20 17:26:46;;;;;;;5.95;1.67;;;;;;;;;;8335644;28;20029;-63
2022/01/20 17:30:47;;;;;;;4.50;1.65;;;;;;;;;;8335212;28;20123;-63
2022/01/20 17:34:47;;;;;;;3.92;1.65;;;;;;;;;;8336482;28;20364;-64
2022/01/20 17:38:47;;;;;;;6.03;1.63;;;;;;;;;;8336318;28;20112;-63
2022/01/20 17:42:47;;;;;;;10.57;1.63;;;;;;;;;;8336276;28;20394;-63
2022/01/20 17:46:47;;;;;;;8.85;1.63;;;;;;;;;;8337142;28;20721;-64
2022/01/20 17:50:48;;;;;;;6.63;1.88;;;;;;;;;;8337715;28;20564;-64
2022/01/20 17:54:48;;;;;;;6.07;1.80;;;;;;;;;;8337980;28;20028;-63
2022/01/20 17:58:48;;;;;;;3.83;1.60;;;;;;;;;;8337552;28;20537;-64
2022/01/20 18:02:49;;;;;;;3.75;1.60;;;;;;;;;;8337695;28;20403;-63
2022/01/20 18:06:49;;;;;;;11.57;1.92;;;;;;;;;;8336540;28;20064;-64
2022/01/20 18:10:52;;;;;;;8.10;2.22;;;;;;;;;;8343442;28;20227;-63
2022/01/20 18:14:52;;;;;;;4.70;1.50;;;;;;;;;;8344242;28;20037;-64
2022/01/20 18:18:52;;;;;;;5.83;2.10;;;;;;;;;;8343050;28;20525;-63
2022/01/20 18:22:52;;;;;;;6.97;2.70;;;;;;;;;;8341748;28;20270;-63
2022/01/20 18:26:53;;;;;;;4.00;1.77;;;;;;;;;;8343801;28;20423;-63
2022/01/20 18:30:53;;;;;;;8.60;1.90;;;;;;;;;;8341332;28;20048;-64
2022/01/20 18:34:54;;;;;;;5.28;1.70;;;;;;;;;;8341171;28;20485;-64
2022/01/20 18:38:54;;;;;;;7.57;2.05;;;;;;;;;;8344727;28;20433;-63
2022/01/20 18:42:54;;;;;;;6.10;1.90;;;;;;;;;;8342645;28;20048;-63
2022/01/20 18:46:54;;;;;;;9.48;1.70;;;;;;;;;;8344056;28;20036;-63
2022/01/20 18:50:54;;;;;;;6.22;1.60;;;;;;;;;;8340344;28;20031;-63
2022/01/20 18:54:56;;;;;;;10.52;2.00;;;;;;;;;;8342713;28;20024;-63
2022/01/20 18:58:56;;;;;;;10.63;2.20;;;;;;;;;;8342939;28;20676;-63
2022/01/20 19:02:56;;;;;;;11.35;2.28;;;;;;;;;;8340944;28;20064;-63
2022/01/20 19:06:57;;;;;;;8.35;2.40;;;;;;;;;;8341345;28;20025;-63
2022/01/20 19:10:58;;;;;;;10.00;2.25;;;;;;;;;;8341698;28;20862;-63
2022/01/20 19:14:58;;;;;;;7.97;2.00;;;;;;;;;;8340319;28;20040;-63
2022/01/20 19:18:59;;;;;;;6.97;2.00;;;;;;;;;;8343442;28;20561;-63
2022/01/20 19:22:59;;;;;;;8.68;2.40;;;;;;;;;;8341074;28;20035;-63
2022/01/20 19:27:04;;;;;;;11.75;2.75;;;;;;;;;;8346815;28;20036;-63
2022/01/20 19:31:06;;;;;;;4.70;1.92;;;;;;;;;;8344612;28;20029;-63
2022/01/20 19:35:07;;;;;;;5.32;1.83;;;;;;;;;;8344781;28;20490;-64
2022/01/20 19:39:08;;;;;;;7.30;2.28;;;;;;;;;;8345244;28;20894;-63
2022/01/20 19:43:08;;;;;;;7.32;1.52;;;;;;;;;;8345207;28;20053;-64
2022/01/20 19:47:09;;;;;;;8.23;1.80;;;;;;;;;;8344658;28;20029;-63
2022/01/20 19:51:09;;;;;;;9.02;2.05;;;;;;;;;;8346389;28;20306;-63
2022/01/20 19:55:10;;;;;;;5.95;1.65;;;;;;;;;;8346712;28;20027;-64
2022/01/20 19:59:16;;;;;;;4.50;2.03;;;;;;;;;;8343715;28;20271;-64
2022/01/20 20:03:17;;;;;;;9.15;2.30;;;;;;;;;;8343528;28;20041;-63
2022/01/20 20:07:18;;;;;;;6.80;2.42;;;;;;;;;;8344999;28;20567;-63
2022/01/20 20:11:19;;;;;;;10.30;2.85;;;;;;;;;;8343417;28;20079;-63
2022/01/20 20:15:19;;;;;;;9.33;2.67;;;;;;;;;;8345877;28;20051;-64
2022/01/20 20:19:20;;;;;;;12.05;3.20;;;;;;;;;;8345113;28;20769;-63
2022/01/20 20:23:20;;;;;;;6.53;2.30;;;;;;;;;;8345097;28;20025;-63
2022/01/20 20:27:21;;;;;;;7.47;2.20;;;;;;;;;;8342232;28;20024;-63
2022/01/20 20:31:21;;;;;;;8.00;2.85;;;;;;;;;;8341766;28;20299;-63
2022/01/20 20:35:21;;;;;;;10.07;2.50;;;;;;;;;;8342854;28;20124;-63
2022/01/20 20:39:22;;;;;;;11.20;2.47;;;;;;;;;;8341707;28;20262;-63
2022/01/20 20:43:22;;;;;;;12.13;2.88;;;;;;;;;;8342816;28;20673;-63
2022/01/20 20:47:22;;;;;;;6.97;2.03;;;;;;;;;;8341802;28;20029;-64
2022/01/20 20:51:23;;;;;;;10.38;2.55;;;;;;;;;;8344468;28;20101;-63
2022/01/20 20:55:24;;;;;;;12.25;2.60;;;;;;;;;;8342631;28;20052;-63
2022/01/20 20:59:24;;;;;;;5.38;2.00;;;;;;;;;;8343406;28;20033;-63
2022/01/20 21:03:24;;;;;;;7.20;2.08;;;;;;;;;;8341346;28;20903;-64
2022/01/20 21:07:25;;;;;;;3.92;2.17;;;;;;;;;;8341892;28;20038;-63
2022/01/20 21:11:26;;;;;;;7.30;2.60;;;;;;;;;;8341193;28;20024;-63
2022/01/20 21:15:26;;;;;;;6.75;2.15;;;;;;;;;;8342587;28;20062;-63
2022/01/20 21:19:27;;;;;;;5.18;1.67;;;;;;;;;;8340264;28;20024;-63
2022/01/20 21:23:29;;;;;;;8.32;1.80;;;;;;;;;;8341899;28;20021;-63
2022/01/20 21:27:30;;;;;;;6.40;1.77;;;;;;;;;;8340365;28;20649;-63
2022/01/20 21:31:30;;;;;;;6.38;1.73;;;;;;;;;;8341580;28;20066;-63
2022/01/20 21:35:30;;;;;;;4.80;1.50;;;;;;;;;;8341079;28;20040;-63
2022/01/20 21:39:31;;;;;;;5.90;1.70;;;;;;;;;;8343867;28;20272;-63
2022/01/20 21:43:31;;;;;;;3.50;1.40;;;;;;;;;;8342398;28;20025;-63
2022/01/20 21:47:31;;;;;;;5.85;1.60;;;;;;;;;;8350393;28;21012;-63
2022/01/20 21:51:32;;;;;;;5.75;1.70;;;;;;;;;;8346578;28;20067;-63
2022/01/20 21:55:32;;;;;;;6.03;1.60;;;;;;;;;;8351106;28;20669;-63
2022/01/20 21:59:33;;;;;;;9.85;1.60;;;;;;;;;;8345188;28;20656;-63
2022/01/20 22:03:34;;;;;;;3.97;1.67;;;;;;;;;;8346921;28;20032;-63
2022/01/20 22:07:34;;;;;;;4.88;1.58;;;;;;;;;;8348507;28;20033;-63
2022/01/20 22:11:34;;;;;;;6.28;1.83;;;;;;;;;;8348946;28;20052;-63
2022/01/20 22:15:35;;;;;;;3.63;1.38;;;;;;;;;;8343872;28;20040;-63
2022/01/20 22:19:35;;;;;;;4.10;1.60;;;;;;;;;;8348782;28;20425;-63
2022/01/20 22:23:35;;;;;;;7.63;2.05;;;;;;;;;;8348213;28;20036;-63
2022/01/20 22:27:36;;;;;;;8.95;1.95;;;;;;;;;;8349998;28;20035;-63
2022/01/20 22:31:36;;;;;;;8.07;1.65;;;;;;;;;;8349642;28;20067;-63
2022/01/20 22:35:36;;;;;;;6.40;1.80;;;;;;;;;;8348649;28;20573;-63
2022/01/20 22:39:37;;;;;;;9.00;2.03;;;;;;;;;;8350302;28;21000;-63
2022/01/20 22:43:37;;;;;;;10.15;2.10;;;;;;;;;;8348027;28;20024;-63
2022/01/20 22:47:40;;;;;;;9.13;1.83;;;;;;;;;;8350861;28;20649;-63
2022/01/20 22:51:41;;;;;;;8.23;2.22;;;;;;;;;;8350825;28;20054;-63
2022/01/20 22:55:41;;;;;;;10.48;2.00;;;;;;;;;;8347716;28;20554;-63
2022/01/20 22:59:41;;;;;;;11.57;1.98;;;;;;;;;;8348434;28;20036;-63
2022/01/20 23:03:42;;;;;;;8.18;1.77;;;;;;;;;;8349734;28;20628;-63
2022/01/20 23:07:42;;;;;;;9.57;1.80;;;;;;;;;;8349067;28;20028;-63
2022/01/20 23:11:42;;;;;;;6.07;1.50;;;;;;;;;;8350010;28;20021;-63
2022/01/20 23:15:45;;;;;;;11.20;2.13;;;;;;;;;;8346211;28;20126;-63
2022/01/20 23:23:48;;;;;;;8.90;2.40;;;;;;;;;;8350194;28;20013;-63
2022/01/20 23:27:48;;;;;;;3.35;1.83;;;;;;;;;;8349278;28;20035;-63
2022/01/20 23:31:49;;;;;;;11.02;2.22;;;;;;;;;;8349032;28;20044;-63
2022/01/20 23:35:49;;;;;;;4.68;1.58;;;;;;;;;;8346513;28;20028;-63
2022/01/20 23:39:53;;;;;;;10.25;2.13;;;;;;;;;;8349101;28;20379;-63
2022/01/20 23:48:08;;;;;;;7.60;2.17;;;;;;;;;;8348965;28;20052;-63
2022/01/20 23:52:08;;;;;;;9.73;2.60;;;;;;;;;;8346607;28;20715;-63
2022/01/20 23:56:09;;;;;;;8.65;2.33;;;;;;;;;;8347543;28;20020;-63
